createdAt,value
2023-04-01T00:00:57.108Z,99017.75
2023-04-01T00:03:24.222Z,99012.56
2023-04-01T00:05:51.164Z,99009.09
2023-04-01T00:08:18.345Z,99014.31
2023-04-01T00:10:45.342Z,99009.13
2023-04-01T00:13:11.776Z,99016.88
2023-04-01T00:15:38.332Z,99008.25
2023-04-01T00:18:05.728Z,99009.09
2023-04-01T00:20:32.180Z,99008.25
2023-04-01T00:22:58.604Z,99011.72
2023-04-01T00:25:25.360Z,99018.63
2023-04-01T00:27:51.914Z,99016.03
2023-04-01T00:30:18.636Z,99013.44
2023-04-01T00:32:45.133Z,99018.63
2023-04-01T00:35:11.828Z,99009.09
2023-04-01T00:37:38.725Z,99016.88
2023-04-01T00:40:07.408Z,99011.72
2023-04-01T00:42:33.951Z,99009.97
2023-04-01T00:45:27.756Z,99014.28
2023-04-01T00:47:54.783Z,99016.00
2023-04-01T00:50:23.604Z,99015.97
2023-04-01T00:52:50.320Z,99016.81
2023-04-01T00:55:17.848Z,99021.13
2023-04-01T00:57:45.410Z,99021.09
2023-04-01T01:00:14.992Z,99016.78
2023-04-01T01:02:46.472Z,99021.97
2023-04-01T01:05:15.455Z,99016.78
2023-04-01T01:07:52.926Z,99025.41
2023-04-01T01:10:23.296Z,99020.22
2023-04-01T01:13:08.342Z,99023.69
2023-04-01T01:15:45.194Z,99022.81
2023-04-01T01:18:46.258Z,99027.97
2023-04-01T01:21:31.871Z,99024.53
2023-04-01T01:24:12.253Z,99018.47
2023-04-01T01:26:55.107Z,99021.06
2023-04-01T01:29:21.429Z,99015.91
2023-04-01T01:32:06.555Z,99015.91
2023-04-01T01:34:38.224Z,99017.63
2023-04-01T01:37:10.012Z,99019.38
2023-04-01T01:39:37.204Z,99009.88
2023-04-01T01:42:09.085Z,99015.91
2023-04-01T01:44:36.696Z,99021.09
2023-04-01T01:47:03.436Z,99016.75
2023-04-01T01:49:31.526Z,99016.75
2023-04-01T01:51:58.330Z,99022.81
2023-04-01T01:54:24.888Z,99026.25
2023-04-01T01:56:56.000Z,99023.69
2023-04-01T01:59:23.416Z,99024.53
2023-04-01T02:01:52.378Z,99030.56
2023-04-01T02:04:19.350Z,99027.13
2023-04-01T02:06:53.375Z,99021.94
2023-04-01T02:09:19.992Z,99020.22
2023-04-01T02:12:02.292Z,99019.34
2023-04-01T02:14:40.492Z,99021.09
2023-04-01T02:17:10.993Z,99013.31
2023-04-01T02:19:39.963Z,99021.09
2023-04-01T02:22:10.217Z,99016.78
2023-04-01T02:24:37.458Z,99015.03
2023-04-01T02:27:04.825Z,99015.88
2023-04-01T02:29:31.336Z,99021.06
2023-04-01T02:31:57.975Z,99020.19
2023-04-01T02:34:25.535Z,99018.47
2023-04-01T02:36:52.704Z,99017.53
2023-04-01T02:39:19.360Z,99027.06
2023-04-01T02:41:46.584Z,99027.03
2023-04-01T02:44:14.271Z,99025.28
2023-04-01T02:46:40.960Z,99026.19
2023-04-01T02:49:07.716Z,99033.13
2023-04-01T02:51:34.763Z,99025.38
2023-04-01T02:54:01.282Z,99033.16
2023-04-01T02:56:27.968Z,99029.69
2023-04-01T02:58:54.925Z,99032.31
2023-04-01T03:01:22.177Z,99037.50
2023-04-01T03:03:48.663Z,99039.22
2023-04-01T03:06:16.502Z,99038.38
2023-04-01T03:08:43.262Z,99034.03
2023-04-01T03:11:10.959Z,99038.38
2023-04-01T03:13:37.466Z,99044.41
2023-04-01T03:16:04.192Z,99039.22
2023-04-01T03:18:30.642Z,99034.00
2023-04-01T03:20:57.051Z,99037.47
2023-04-01T03:23:25.171Z,99041.78
2023-04-01T03:25:52.006Z,99040.94
2023-04-01T03:28:18.502Z,99048.72
2023-04-01T03:30:44.968Z,99044.38
2023-04-01T03:33:11.400Z,99044.38
2023-04-01T03:35:37.797Z,99042.63
2023-04-01T03:38:04.317Z,99046.97
2023-04-01T03:40:30.792Z,99046.13
2023-04-01T03:42:57.436Z,99047.84
2023-04-01T03:45:23.955Z,99041.81
2023-04-01T03:47:50.486Z,99046.13
2023-04-01T03:50:17.144Z,99047.00
2023-04-01T03:52:43.556Z,99040.97
2023-04-01T03:55:10.025Z,99047.84
2023-04-01T03:57:36.523Z,99047.84
2023-04-01T04:00:03.217Z,99046.94
2023-04-01T04:02:29.694Z,99045.22
2023-04-01T04:04:56.175Z,99046.09
2023-04-01T04:07:22.624Z,99052.13
2023-04-01T04:09:49.018Z,99047.81
2023-04-01T04:12:15.644Z,99047.81
2023-04-01T04:14:42.052Z,99054.69
2023-04-01T04:17:16.903Z,99046.03
2023-04-01T04:19:44.063Z,99053.00
2023-04-01T04:22:10.521Z,99054.72
2023-04-01T04:24:37.104Z,99054.69
2023-04-01T04:27:04.341Z,99058.16
2023-04-01T04:29:30.867Z,99053.81
2023-04-01T04:31:57.448Z,99058.97
2023-04-01T04:34:24.116Z,99067.63
2023-04-01T04:36:50.569Z,99070.22
2023-04-01T04:39:17.000Z,99068.47
2023-04-01T04:41:43.407Z,99070.22
2023-04-01T04:44:09.847Z,99073.66
2023-04-01T04:46:38.112Z,99071.06
2023-04-01T04:49:04.565Z,99074.50
2023-04-01T04:51:31.004Z,99073.66
2023-04-01T04:53:57.425Z,99074.53
2023-04-01T04:56:26.236Z,99075.38
2023-04-01T04:58:53.009Z,99078.81
2023-04-01T05:01:20.270Z,99077.94
2023-04-01T05:03:47.953Z,99078.78
2023-04-01T05:06:16.008Z,99083.09
2023-04-01T05:08:43.781Z,99092.59
2023-04-01T05:11:13.961Z,99092.59
2023-04-01T05:13:40.728Z,99080.47
2023-04-01T05:16:15.852Z,99089.13
2023-04-01T05:18:42.669Z,99096.00
2023-04-01T05:21:11.136Z,99089.94
2023-04-01T05:23:37.931Z,99090.81
2023-04-01T05:26:06.201Z,99100.34
2023-04-01T05:28:32.644Z,99098.63
2023-04-01T05:31:01.260Z,99099.50
2023-04-01T05:33:28.865Z,99106.44
2023-04-01T05:35:55.646Z,99105.59
2023-04-01T05:38:22.113Z,99104.75
2023-04-01T05:40:48.601Z,99103.94
2023-04-01T05:43:15.100Z,99103.09
2023-04-01T05:45:41.500Z,99104.84
2023-04-01T05:48:07.974Z,99103.13
2023-04-01T05:50:34.492Z,99113.53
2023-04-01T05:53:00.956Z,99108.38
2023-04-01T05:55:27.353Z,99111.91
2023-04-01T05:57:53.821Z,99107.63
2023-04-01T06:00:20.939Z,99111.09
2023-04-01T06:02:47.603Z,99112.06
2023-04-01T06:05:20.307Z,99108.63
2023-04-01T06:07:47.027Z,99119.06
2023-04-01T06:10:16.442Z,99121.75
2023-04-01T06:13:06.782Z,99121.88
2023-04-01T06:15:38.057Z,99123.63
2023-04-01T06:18:42.605Z,99124.56
2023-04-01T06:21:31.009Z,99119.44
2023-04-01T06:24:09.398Z,99116.09
2023-04-01T06:26:59.340Z,99124.75
2023-04-01T06:29:43.368Z,99129.13
2023-04-01T06:32:19.260Z,99124.81
2023-04-01T06:35:23.534Z,99128.38
2023-04-01T06:38:12.740Z,99135.31
2023-04-01T06:40:47.334Z,99139.66
2023-04-01T06:43:28.902Z,99136.22
2023-04-01T06:46:17.127Z,99142.34
2023-04-01T06:49:16.657Z,99139.75
2023-04-01T06:51:58.481Z,99138.94
2023-04-01T06:54:39.668Z,99140.72
2023-04-01T06:57:36.167Z,99140.75
2023-04-01T07:00:06.031Z,99150.28
2023-04-01T07:02:41.929Z,99149.44
2023-04-01T07:05:08.559Z,99147.75
2023-04-01T07:07:44.696Z,99145.19
2023-04-01T07:10:15.590Z,99150.41
2023-04-01T07:12:51.056Z,99152.19
2023-04-01T07:15:21.545Z,99152.22
2023-04-01T07:17:51.993Z,99149.63
2023-04-01T07:20:24.515Z,99161.81
2023-04-01T07:22:53.595Z,99149.69
2023-04-01T07:25:38.269Z,99160.97
2023-04-01T07:28:13.673Z,99146.25
2023-04-01T07:30:52.468Z,99155.84
2023-04-01T07:33:40.951Z,99159.31
2023-04-01T07:36:14.709Z,99160.19
2023-04-01T07:38:54.878Z,99169.78
2023-04-01T07:41:35.074Z,99162.00
2023-04-01T07:44:42.020Z,99167.28
2023-04-01T07:47:17.444Z,99174.25
2023-04-01T07:50:18.435Z,99176.88
2023-04-01T07:53:06.656Z,99179.47
2023-04-01T07:55:51.254Z,99175.22
2023-04-01T07:58:24.181Z,99184.75
2023-04-01T08:01:07.418Z,99191.69
2023-04-01T08:03:55.802Z,99188.28
2023-04-01T08:06:26.688Z,99197.81
2023-04-01T08:09:03.714Z,99196.97
2023-04-01T08:11:47.421Z,99197.00
2023-04-01T08:14:26.617Z,99196.13
2023-04-01T08:17:15.309Z,99196.13
2023-04-01T08:20:03.425Z,99200.47
2023-04-01T08:22:40.281Z,99197.91
2023-04-01T08:25:08.757Z,99205.72
2023-04-01T08:27:38.872Z,99204.03
2023-04-01T08:30:26.480Z,99210.97
2023-04-01T08:32:59.532Z,99204.94
2023-04-01T08:35:42.910Z,99206.66
2023-04-01T08:38:16.920Z,99211.03
2023-04-01T08:40:55.404Z,99207.53
2023-04-01T08:43:40.363Z,99204.97
2023-04-01T08:46:15.805Z,99210.19
2023-04-01T08:49:07.056Z,99209.31
2023-04-01T08:51:55.118Z,99206.69
2023-04-01T08:54:30.161Z,99211.94
2023-04-01T08:57:27.740Z,99213.69
2023-04-01T09:00:14.562Z,99214.53
2023-04-01T09:02:52.362Z,99214.53
2023-04-01T09:05:42.698Z,99212.81
2023-04-01T09:08:22.025Z,99204.09
2023-04-01T09:11:03.094Z,99205.84
2023-04-01T09:13:51.919Z,99211.91
2023-04-01T09:16:26.142Z,99213.66
2023-04-01T09:19:17.448Z,99204.06
2023-04-01T09:22:04.045Z,99208.38
2023-04-01T09:24:34.785Z,99214.34
2023-04-01T09:27:05.028Z,99210.84
2023-04-01T09:29:43.947Z,99209.09
2023-04-01T09:32:22.623Z,99206.41
2023-04-01T09:35:22.482Z,99208.91
2023-04-01T09:38:26.132Z,99214.16
2023-04-01T09:41:29.783Z,99222.81
2023-04-01T09:44:12.349Z,99215.81
2023-04-01T09:47:00.816Z,99218.44
2023-04-01T09:49:47.399Z,99219.28
2023-04-01T09:52:22.894Z,99209.75
2023-04-01T09:55:15.959Z,99223.63
2023-04-01T09:58:03.648Z,99221.97
2023-04-01T10:00:57.022Z,99227.19
2023-04-01T10:03:32.837Z,99221.16
2023-04-01T10:06:36.942Z,99228.97
2023-04-01T10:09:32.863Z,99234.22
2023-04-01T10:12:17.732Z,99237.72
2023-04-01T10:15:17.372Z,99240.38
2023-04-01T10:18:16.092Z,99245.59
2023-04-01T10:21:01.187Z,99244.75
2023-04-01T10:23:45.161Z,99242.13
2023-04-01T10:26:33.438Z,99248.19
2023-04-01T10:29:27.803Z,99245.53
2023-04-01T10:32:28.070Z,99235.88
2023-04-01T10:35:09.784Z,99241.94
2023-04-01T10:37:55.259Z,99246.28
2023-04-01T10:40:30.965Z,99247.06
2023-04-01T10:43:21.216Z,99244.44
2023-04-01T10:46:01.336Z,99243.50
2023-04-01T10:48:41.389Z,99246.97
2023-04-01T10:51:17.231Z,99252.16
2023-04-01T10:54:18.990Z,99250.34
2023-04-01T10:56:58.267Z,99253.81
2023-04-01T11:00:00.955Z,99248.63
2023-04-01T11:03:00.741Z,99240.69
2023-04-01T11:05:53.196Z,99246.72
2023-04-01T11:08:51.401Z,99247.63
2023-04-01T11:11:27.300Z,99257.09
2023-04-01T11:13:58.897Z,99251.00
2023-04-01T11:16:49.343Z,99255.34
2023-04-01T11:20:03.944Z,99253.53
2023-04-01T11:23:11.167Z,99253.53
2023-04-01T11:25:54.149Z,99256.13
2023-04-01T11:28:54.664Z,99260.50
2023-04-01T11:31:36.607Z,99261.31
2023-04-01T11:34:30.816Z,99259.56
2023-04-01T11:37:11.392Z,99260.38
2023-04-01T11:40:00.228Z,99267.22
2023-04-01T11:42:54.400Z,99278.53
2023-04-01T11:45:28.608Z,99268.09
2023-04-01T11:48:21.473Z,99273.34
2023-04-01T11:50:59.919Z,99272.56
2023-04-01T11:53:40.604Z,99281.31
2023-04-01T11:56:28.833Z,99286.56
2023-04-01T11:59:16.893Z,99283.25
2023-04-01T12:01:52.966Z,99293.81
2023-04-01T12:04:28.704Z,99293.91
2023-04-01T12:07:04.518Z,99291.31
2023-04-01T12:09:56.836Z,99288.75
2023-04-01T12:12:28.820Z,99297.41
2023-04-01T12:15:14.939Z,99299.13
2023-04-01T12:17:51.908Z,99299.91
2023-04-01T12:20:57.616Z,99301.66
2023-04-01T12:23:37.940Z,99305.19
2023-04-01T12:26:22.401Z,99306.88
2023-04-01T12:29:19.928Z,99305.13
2023-04-01T12:32:05.263Z,99310.34
2023-04-01T12:35:03.359Z,99312.97
2023-04-01T12:37:51.248Z,99308.56
2023-04-01T12:40:47.099Z,99315.53
2023-04-01T12:43:41.324Z,99323.38
2023-04-01T12:46:44.794Z,99320.69
2023-04-01T12:49:27.125Z,99330.31
2023-04-01T12:52:03.220Z,99328.50
2023-04-01T12:55:00.801Z,99342.41
2023-04-01T12:57:33.526Z,99338.88
2023-04-01T13:00:04.618Z,99339.69
2023-04-01T13:02:52.314Z,99334.47
2023-04-01T13:05:21.649Z,99336.16
2023-04-01T13:08:01.637Z,99342.22
2023-04-01T13:10:39.836Z,99341.41
2023-04-01T13:13:33.302Z,99351.94
2023-04-01T13:16:04.609Z,99354.56
2023-04-01T13:18:51.201Z,99355.47
2023-04-01T13:21:25.925Z,99363.28
2023-04-01T13:24:05.984Z,99356.38
2023-04-01T13:27:15.360Z,99365.13
2023-04-01T13:29:45.882Z,99369.53
2023-04-01T13:32:12.293Z,99373.94
2023-04-01T13:34:50.759Z,99374.94
2023-04-01T13:37:36.433Z,99371.59
2023-04-01T13:40:13.872Z,99381.31
2023-04-01T13:42:49.499Z,99374.38
2023-04-01T13:45:32.105Z,99379.63
2023-04-01T13:48:01.692Z,99387.47
2023-04-01T13:50:31.633Z,99386.63
2023-04-01T13:53:22.118Z,99398.78
2023-04-01T13:55:56.091Z,99387.47
2023-04-01T13:58:45.124Z,99388.34
2023-04-01T14:01:38.543Z,99395.25
2023-04-01T14:04:21.111Z,99406.44
2023-04-01T14:07:05.741Z,99413.31
2023-04-01T14:09:43.708Z,99418.44
2023-04-01T14:12:16.595Z,99423.63
2023-04-01T14:14:55.556Z,99419.22
2023-04-01T14:17:32.712Z,99424.44
2023-04-01T14:20:14.250Z,99421.75
2023-04-01T14:22:51.777Z,99440.72
2023-04-01T14:25:37.779Z,99431.94
2023-04-01T14:28:20.226Z,99444.84
2023-04-01T14:31:11.982Z,99450.75
2023-04-01T14:33:58.222Z,99446.22
2023-04-01T14:36:47.142Z,99466.00
2023-04-01T14:39:31.171Z,99462.38
2023-04-01T14:42:36.194Z,99462.22
2023-04-01T14:45:45.590Z,99468.06
2023-04-01T14:48:31.671Z,99474.84
2023-04-01T14:51:04.906Z,99479.94
2023-04-01T14:53:36.228Z,99490.13
2023-04-01T14:56:04.076Z,99491.66
2023-04-01T14:58:47.817Z,99505.53
2023-04-01T15:01:36.571Z,99505.50
2023-04-01T15:04:51.242Z,99511.56
2023-04-01T15:07:37.488Z,99514.88
2023-04-01T15:10:31.862Z,99523.50
2023-04-01T15:13:31.469Z,99519.91
2023-04-01T15:16:28.666Z,99536.25
2023-04-01T15:19:07.771Z,99546.25
2023-04-01T15:22:05.318Z,99546.13
2023-04-01T15:24:44.069Z,99562.50
2023-04-01T15:27:50.865Z,99559.63
2023-04-01T15:30:23.785Z,99565.53
2023-04-01T15:33:08.988Z,99575.81
2023-04-01T15:36:11.025Z,99582.38
2023-04-01T15:38:44.634Z,99578.06
2023-04-01T15:41:39.881Z,99586.50
2023-04-01T15:44:35.506Z,99583.06
2023-04-01T15:47:27.197Z,99603.75
2023-04-01T15:50:24.795Z,99601.06
2023-04-01T15:53:31.766Z,99607.81
2023-04-01T15:56:12.543Z,99613.84
2023-04-01T15:58:50.867Z,99612.06
2023-04-01T16:01:32.247Z,99611.84
2023-04-01T16:04:17.550Z,99635.97
2023-04-01T16:07:12.213Z,99632.38
2023-04-01T16:09:44.978Z,99633.19
2023-04-01T16:12:39.644Z,99632.25
2023-04-01T16:15:43.616Z,99644.38
2023-04-01T16:18:19.216Z,99650.88
2023-04-01T16:21:06.820Z,99654.16
2023-04-01T16:23:39.485Z,99660.00
2023-04-01T16:26:29.907Z,99658.22
2023-04-01T16:29:03.964Z,99661.69
2023-04-01T16:31:36.124Z,99666.13
2023-04-01T16:34:09.976Z,99674.56
2023-04-01T16:36:51.502Z,99677.00
2023-04-01T16:39:32.257Z,99682.16
2023-04-01T16:42:07.691Z,99684.72
2023-04-01T16:44:49.728Z,99686.22
2023-04-01T16:47:20.197Z,99691.44
2023-04-01T16:49:53.423Z,99696.63
2023-04-01T16:52:53.461Z,99701.59
2023-04-01T16:55:22.024Z,99711.03
2023-04-01T16:57:50.753Z,99713.50
2023-04-01T17:00:23.980Z,99721.38
2023-04-01T17:03:11.115Z,99727.22
2023-04-01T17:05:50.696Z,99730.47
2023-04-01T17:08:39.372Z,99746.50
2023-04-01T17:11:36.893Z,99751.72
2023-04-01T17:14:25.182Z,99760.25
2023-04-01T17:17:06.796Z,99759.09
2023-04-01T17:20:10.977Z,99762.28
2023-04-01T17:22:49.625Z,99771.66
2023-04-01T17:25:39.199Z,99784.53
2023-04-01T17:28:43.585Z,99781.94
2023-04-01T17:31:22.365Z,99782.69
2023-04-01T17:33:55.124Z,99798.97
2023-04-01T17:36:31.617Z,99798.22
2023-04-01T17:39:13.969Z,99811.84
2023-04-01T17:41:54.777Z,99815.34
2023-04-01T17:44:33.439Z,99815.47
2023-04-01T17:47:07.197Z,99824.69
2023-04-01T17:49:39.493Z,99833.00
2023-04-01T17:52:18.145Z,99838.19
2023-04-01T17:55:00.323Z,99842.28
2023-04-01T17:57:35.369Z,99842.19
2023-04-01T18:00:13.887Z,99851.22
2023-04-01T18:02:50.773Z,99859.63
2023-04-01T18:05:42.501Z,99855.09
2023-04-01T18:08:50.788Z,99875.75
2023-04-01T18:11:24.647Z,99873.81
2023-04-01T18:14:03.305Z,99879.78
2023-04-01T18:16:44.057Z,99884.16
2023-04-01T18:19:35.835Z,99902.13
2023-04-01T18:22:20.343Z,99907.19
2023-04-01T18:25:25.732Z,99908.72
2023-04-01T18:28:12.374Z,99909.41
2023-04-01T18:30:40.662Z,99925.53
2023-04-01T18:33:24.352Z,99924.38
2023-04-01T18:36:04.993Z,99931.19
2023-04-01T18:38:35.686Z,99943.94
2023-04-01T18:41:11.291Z,99943.06
2023-04-01T18:43:45.225Z,99954.13
2023-04-01T18:46:22.217Z,99958.31
2023-04-01T18:48:57.369Z,99962.53
2023-04-01T18:51:35.170Z,99973.44
2023-04-01T18:54:04.132Z,99969.00
2023-04-01T18:56:38.793Z,99983.53
2023-04-01T18:59:17.961Z,99987.88
2023-04-01T19:01:58.202Z,99992.81
2023-04-01T19:04:34.849Z,99998.72
2023-04-01T19:07:20.869Z,100002.31
2023-04-01T19:09:49.849Z,100010.72
2023-04-01T19:12:31.362Z,100012.63
2023-04-01T19:15:22.111Z,100020.81
2023-04-01T19:18:03.789Z,100029.72
2023-04-01T19:20:38.924Z,100036.56
2023-04-01T19:23:27.298Z,100039.16
2023-04-01T19:25:59.476Z,100041.84
2023-04-01T19:28:52.137Z,100056.72
2023-04-01T19:31:32.822Z,100058.19
2023-04-01T19:34:09.560Z,100057.22
2023-04-01T19:36:48.413Z,100063.81
2023-04-01T19:39:52.537Z,100072.81
2023-04-01T19:42:41.500Z,100074.19
2023-04-01T19:45:14.992Z,100082.47
2023-04-01T19:48:14.505Z,100086.75
2023-04-01T19:50:53.080Z,100105.41
2023-04-01T19:53:46.032Z,100105.47
2023-04-01T19:56:18.250Z,100106.31
2023-04-01T19:59:00.292Z,100112.16
2023-04-01T20:01:44.611Z,100111.00
2023-04-01T20:04:15.648Z,100122.81
2023-04-01T20:07:08.580Z,100134.88
2023-04-01T20:10:09.168Z,100131.88
2023-04-01T20:12:50.587Z,100143.81
2023-04-01T20:15:36.208Z,100152.38
2023-04-01T20:18:24.923Z,100151.34
2023-04-01T20:20:59.064Z,100161.31
2023-04-01T20:23:34.708Z,100169.72
2023-04-01T20:26:09.089Z,100182.47
2023-04-01T20:28:49.885Z,100185.09
2023-04-01T20:31:27.100Z,100196.97
2023-04-01T20:34:10.515Z,100201.94
2023-04-01T20:37:00.888Z,100205.41
2023-04-01T20:42:38.695Z,100210.34
2023-04-01T20:45:44.854Z,100219.34
2023-04-01T20:48:41.996Z,100227.00
2023-04-01T20:51:14.803Z,100221.19
2023-04-01T20:53:59.837Z,100222.97
2023-04-01T20:56:44.345Z,100230.97
2023-04-01T20:59:29.407Z,100243.84
2023-04-01T21:02:06.591Z,100243.56
2023-04-01T21:04:48.813Z,100238.91
2023-04-01T21:07:28.105Z,100249.09
2023-04-01T21:10:18.217Z,100253.34
2023-04-01T21:13:12.383Z,100259.25
2023-04-01T21:16:04.634Z,100262.63
2023-04-01T21:18:51.697Z,100271.28
2023-04-01T21:21:27.504Z,100276.13
2023-04-01T21:24:09.498Z,100276.94
2023-04-01T21:26:47.835Z,100289.66
2023-04-01T21:29:35.928Z,100283.50
2023-04-01T21:32:11.283Z,100289.88
2023-04-01T21:34:44.647Z,100303.47
2023-04-01T21:37:18.290Z,100310.25
2023-04-01T21:40:11.684Z,100308.41
2023-04-01T21:43:15.924Z,100322.88
2023-04-01T21:46:06.749Z,100320.06
2023-04-01T21:48:53.223Z,100328.59
2023-04-01T21:51:44.852Z,100331.41
2023-04-01T21:54:44.203Z,100333.81
2023-04-01T21:57:45.680Z,100340.34
2023-04-01T22:00:25.591Z,100343.09
2023-04-01T22:03:26.824Z,100342.28
2023-04-01T22:06:07.910Z,100342.81
2023-04-01T22:08:43.138Z,100352.81
2023-04-01T22:11:37.028Z,100351.88
2023-04-01T22:14:32.702Z,100369.72
2023-04-01T22:17:04.602Z,100365.78
2023-04-01T22:19:54.825Z,100373.63
2023-04-01T22:22:27.862Z,100378.84
2023-04-01T22:24:54.164Z,100380.16
2023-04-01T22:27:56.876Z,100383.09
2023-04-01T22:30:31.277Z,100396.75
2023-04-01T22:33:06.597Z,100399.78
2023-04-01T22:36:12.567Z,100397.78
2023-04-01T22:38:55.906Z,100402.84
2023-04-01T22:42:06.572Z,100404.69
2023-04-01T22:44:45.283Z,100404.47
2023-04-01T22:47:41.811Z,100408.56
2023-04-01T22:50:40.830Z,100425.81
2023-04-01T22:53:19.922Z,100432.91
2023-04-01T22:55:53.670Z,100431.94
2023-04-01T22:58:31.198Z,100433.38
2023-04-01T23:01:01.109Z,100437.44
2023-04-01T23:03:35.881Z,100445.00
2023-04-01T23:06:04.152Z,100453.34
2023-04-01T23:08:55.310Z,100451.50
2023-04-01T23:11:52.891Z,100462.66
2023-04-01T23:14:24.207Z,100461.66
2023-04-01T23:17:02.606Z,100467.28
2023-04-01T23:19:56.304Z,100474.91
2023-04-01T23:22:50.215Z,100476.16
2023-04-01T23:25:37.711Z,100488.66
2023-04-01T23:28:20.275Z,100485.91
2023-04-01T23:30:51.109Z,100491.22
2023-04-01T23:33:20.808Z,100493.50
2023-04-01T23:35:49.289Z,100498.66
2023-04-01T23:38:16.276Z,100501.41
2023-04-01T23:40:43.069Z,100522.56
2023-04-01T23:43:29.650Z,100523.13
2023-04-01T23:45:56.926Z,100528.59
2023-04-01T23:48:29.320Z,100527.78
2023-04-01T23:50:57.490Z,100525.94
2023-04-01T23:53:30.732Z,100541.50
2023-04-01T23:55:57.200Z,100534.91
2023-04-01T23:58:27.306Z,100534.28
